sensor_id;sensor_type;location;lat;lon;timestamp;temperature;humidity
45104;DHT22;30865;51.288;4.572;2023-06-04T00:02:14;16.70;79.50
45104;DHT22;30865;51.288;4.572;2023-06-04T00:04:40;16.60;79.70
45104;DHT22;30865;51.288;4.572;2023-06-04T00:07:06;16.70;80.10
45104;DHT22;30865;51.288;4.572;2023-06-04T00:09:31;16.70;80.10
45104;DHT22;30865;51.288;4.572;2023-06-04T00:11:57;16.70;80.20
45104;DHT22;30865;51.288;4.572;2023-06-04T00:14:23;16.60;80.70
45104;DHT22;30865;51.288;4.572;2023-06-04T00:16:58;16.50;81.20
45104;DHT22;30865;51.288;4.572;2023-06-04T00:19:24;16.40;81.60
45104;DHT22;30865;51.288;4.572;2023-06-04T00:21:49;16.40;81.80
45104;DHT22;30865;51.288;4.572;2023-06-04T00:24:16;16.50;82.10
45104;DHT22;30865;51.288;4.572;2023-06-04T00:26:42;16.50;82.10
45104;DHT22;30865;51.288;4.572;2023-06-04T00:29:07;16.40;82.60
45104;DHT22;30865;51.288;4.572;2023-06-04T00:31:33;16.40;83.00
45104;DHT22;30865;51.288;4.572;2023-06-04T00:33:58;16.40;82.80
45104;DHT22;30865;51.288;4.572;2023-06-04T00:36:24;16.40;82.50
45104;DHT22;30865;51.288;4.572;2023-06-04T00:38:49;16.40;83.40
45104;DHT22;30865;51.288;4.572;2023-06-04T00:41:15;16.30;83.50
45104;DHT22;30865;51.288;4.572;2023-06-04T00:43:40;16.30;83.80
45104;DHT22;30865;51.288;4.572;2023-06-04T00:46:11;16.30;83.20
45104;DHT22;30865;51.288;4.572;2023-06-04T00:48:44;16.30;83.60
45104;DHT22;30865;51.288;4.572;2023-06-04T00:51:10;16.30;83.60
45104;DHT22;30865;51.288;4.572;2023-06-04T00:53:36;16.10;84.20
45104;DHT22;30865;51.288;4.572;2023-06-04T00:56:02;16.10;85.20
45104;DHT22;30865;51.288;4.572;2023-06-04T00:58:30;16.00;85.90
45104;DHT22;30865;51.288;4.572;2023-06-04T01:00:56;16.00;85.50
45104;DHT22;30865;51.288;4.572;2023-06-04T01:03:25;16.00;85.00
45104;DHT22;30865;51.288;4.572;2023-06-04T01:06:13;16.00;85.90
45104;DHT22;30865;51.288;4.572;2023-06-04T01:08:44;16.00;84.60
45104;DHT22;30865;51.288;4.572;2023-06-04T01:11:09;15.90;85.00
45104;DHT22;30865;51.288;4.572;2023-06-04T01:13:35;16.10;85.00
45104;DHT22;30865;51.288;4.572;2023-06-04T01:16:00;15.80;85.90
45104;DHT22;30865;51.288;4.572;2023-06-04T01:18:27;15.80;86.30
45104;DHT22;30865;51.288;4.572;2023-06-04T01:20:59;15.80;86.80
45104;DHT22;30865;51.288;4.572;2023-06-04T01:23:33;15.70;86.80
45104;DHT22;30865;51.288;4.572;2023-06-04T01:26:04;15.80;87.00
45104;DHT22;30865;51.288;4.572;2023-06-04T01:28:32;15.70;85.70
45104;DHT22;30865;51.288;4.572;2023-06-04T01:30:58;15.70;85.30
45104;DHT22;30865;51.288;4.572;2023-06-04T01:33:25;15.60;83.40
45104;DHT22;30865;51.288;4.572;2023-06-04T01:35:51;15.50;83.10
45104;DHT22;30865;51.288;4.572;2023-06-04T01:38:17;15.50;84.40
45104;DHT22;30865;51.288;4.572;2023-06-04T01:40:43;15.40;85.50
45104;DHT22;30865;51.288;4.572;2023-06-04T01:43:09;15.40;85.50
45104;DHT22;30865;51.288;4.572;2023-06-04T01:45:35;15.40;85.20
45104;DHT22;30865;51.288;4.572;2023-06-04T01:48:04;15.30;85.30
45104;DHT22;30865;51.288;4.572;2023-06-04T01:50:30;15.40;85.30
45104;DHT22;30865;51.288;4.572;2023-06-04T01:52:56;15.50;84.60
45104;DHT22;30865;51.288;4.572;2023-06-04T01:55:22;15.50;85.20
45104;DHT22;30865;51.288;4.572;2023-06-04T01:57:50;15.40;85.40
45104;DHT22;30865;51.288;4.572;2023-06-04T02:00:16;15.30;85.20
45104;DHT22;30865;51.288;4.572;2023-06-04T02:02:45;15.20;85.90
45104;DHT22;30865;51.288;4.572;2023-06-04T02:05:11;15.10;85.00
45104;DHT22;30865;51.288;4.572;2023-06-04T02:07:39;15.10;85.20
45104;DHT22;30865;51.288;4.572;2023-06-04T02:10:12;14.90;86.70
45104;DHT22;30865;51.288;4.572;2023-06-04T02:12:39;14.80;88.20
45104;DHT22;30865;51.288;4.572;2023-06-04T02:15:06;14.90;88.20
45104;DHT22;30865;51.288;4.572;2023-06-04T02:17:32;15.00;88.00
45104;DHT22;30865;51.288;4.572;2023-06-04T02:19:58;14.90;88.40
45104;DHT22;30865;51.288;4.572;2023-06-04T02:22:25;14.80;89.60
45104;DHT22;30865;51.288;4.572;2023-06-04T02:24:50;14.80;89.10
45104;DHT22;30865;51.288;4.572;2023-06-04T02:27:16;14.80;89.30
45104;DHT22;30865;51.288;4.572;2023-06-04T02:29:42;14.90;88.80
45104;DHT22;30865;51.288;4.572;2023-06-04T02:32:08;14.80;89.60
45104;DHT22;30865;51.288;4.572;2023-06-04T02:34:34;14.90;88.60
45104;DHT22;30865;51.288;4.572;2023-06-04T02:37:00;14.80;89.60
45104;DHT22;30865;51.288;4.572;2023-06-04T02:39:26;14.90;89.30
45104;DHT22;30865;51.288;4.572;2023-06-04T02:41:51;14.80;88.40
45104;DHT22;30865;51.288;4.572;2023-06-04T02:44:17;14.80;88.20
45104;DHT22;30865;51.288;4.572;2023-06-04T02:46:44;14.70;88.20
45104;DHT22;30865;51.288;4.572;2023-06-04T02:49:10;14.60;88.70
45104;DHT22;30865;51.288;4.572;2023-06-04T02:51:39;14.60;88.30
45104;DHT22;30865;51.288;4.572;2023-06-04T02:54:05;14.60;88.50
45104;DHT22;30865;51.288;4.572;2023-06-04T02:56:30;14.50;87.10
45104;DHT22;30865;51.288;4.572;2023-06-04T02:58:56;14.50;86.10
45104;DHT22;30865;51.288;4.572;2023-06-04T03:01:23;14.50;86.50
45104;DHT22;30865;51.288;4.572;2023-06-04T03:03:49;14.60;86.10
45104;DHT22;30865;51.288;4.572;2023-06-04T03:06:16;14.50;87.10
45104;DHT22;30865;51.288;4.572;2023-06-04T03:08:42;14.50;87.40
45104;DHT22;30865;51.288;4.572;2023-06-04T03:11:08;14.50;87.30
45104;DHT22;30865;51.288;4.572;2023-06-04T03:13:35;14.50;87.00
45104;DHT22;30865;51.288;4.572;2023-06-04T03:16:01;14.50;86.70
45104;DHT22;30865;51.288;4.572;2023-06-04T03:18:27;14.50;87.10
45104;DHT22;30865;51.288;4.572;2023-06-04T03:20:53;14.50;87.40
45104;DHT22;30865;51.288;4.572;2023-06-04T03:23:20;14.60;86.60
45104;DHT22;30865;51.288;4.572;2023-06-04T03:25:45;14.50;86.00
45104;DHT22;30865;51.288;4.572;2023-06-04T03:28:11;14.50;85.70
45104;DHT22;30865;51.288;4.572;2023-06-04T03:30:37;14.60;83.60
45104;DHT22;30865;51.288;4.572;2023-06-04T03:33:03;14.70;81.90
45104;DHT22;30865;51.288;4.572;2023-06-04T03:35:29;14.70;83.00
45104;DHT22;30865;51.288;4.572;2023-06-04T03:37:54;14.60;82.60
45104;DHT22;30865;51.288;4.572;2023-06-04T03:40:20;14.50;83.30
45104;DHT22;30865;51.288;4.572;2023-06-04T03:42:45;14.50;83.20
45104;DHT22;30865;51.288;4.572;2023-06-04T03:45:11;14.50;83.80
45104;DHT22;30865;51.288;4.572;2023-06-04T03:47:38;14.50;84.00
45104;DHT22;30865;51.288;4.572;2023-06-04T03:50:05;14.40;82.90
45104;DHT22;30865;51.288;4.572;2023-06-04T03:52:30;14.30;83.50
45104;DHT22;30865;51.288;4.572;2023-06-04T03:54:56;14.40;83.90
45104;DHT22;30865;51.288;4.572;2023-06-04T03:57:22;14.30;84.50
45104;DHT22;30865;51.288;4.572;2023-06-04T03:59:47;14.30;84.20
45104;DHT22;30865;51.288;4.572;2023-06-04T04:02:13;14.30;85.00
45104;DHT22;30865;51.288;4.572;2023-06-04T04:04:40;14.30;85.80
45104;DHT22;30865;51.288;4.572;2023-06-04T04:07:05;14.20;85.50
45104;DHT22;30865;51.288;4.572;2023-06-04T04:09:31;14.30;86.00
45104;DHT22;30865;51.288;4.572;2023-06-04T04:11:56;14.50;85.40
45104;DHT22;30865;51.288;4.572;2023-06-04T04:14:22;14.50;84.80
45104;DHT22;30865;51.288;4.572;2023-06-04T04:16:47;14.50;83.50
45104;DHT22;30865;51.288;4.572;2023-06-04T04:19:13;14.50;83.60
45104;DHT22;30865;51.288;4.572;2023-06-04T04:21:39;14.60;83.30
45104;DHT22;30865;51.288;4.572;2023-06-04T04:24:05;14.70;83.20
45104;DHT22;30865;51.288;4.572;2023-06-04T04:26:30;14.80;82.00
45104;DHT22;30865;51.288;4.572;2023-06-04T04:28:56;15.00;80.70
45104;DHT22;30865;51.288;4.572;2023-06-04T04:31:24;15.10;78.80
45104;DHT22;30865;51.288;4.572;2023-06-04T04:33:50;15.20;78.60
45104;DHT22;30865;51.288;4.572;2023-06-04T04:36:16;15.20;77.30
45104;DHT22;30865;51.288;4.572;2023-06-04T04:38:44;15.20;77.40
45104;DHT22;30865;51.288;4.572;2023-06-04T04:41:10;15.10;77.50
45104;DHT22;30865;51.288;4.572;2023-06-04T04:43:37;15.10;77.40
45104;DHT22;30865;51.288;4.572;2023-06-04T04:46:14;15.10;77.00
45104;DHT22;30865;51.288;4.572;2023-06-04T04:48:39;15.20;76.80
45104;DHT22;30865;51.288;4.572;2023-06-04T04:51:07;15.40;76.70
45104;DHT22;30865;51.288;4.572;2023-06-04T04:53:33;15.30;76.80
45104;DHT22;30865;51.288;4.572;2023-06-04T04:55:58;15.20;77.80
45104;DHT22;30865;51.288;4.572;2023-06-04T04:58:24;15.30;77.30
45104;DHT22;30865;51.288;4.572;2023-06-04T05:00:49;15.10;77.00
45104;DHT22;30865;51.288;4.572;2023-06-04T05:03:15;15.20;77.20
45104;DHT22;30865;51.288;4.572;2023-06-04T05:05:40;15.40;76.60
45104;DHT22;30865;51.288;4.572;2023-06-04T05:08:06;15.30;75.80
45104;DHT22;30865;51.288;4.572;2023-06-04T05:10:33;15.20;74.80
45104;DHT22;30865;51.288;4.572;2023-06-04T05:12:59;15.40;75.80
45104;DHT22;30865;51.288;4.572;2023-06-04T05:15:26;15.50;75.30
45104;DHT22;30865;51.288;4.572;2023-06-04T05:17:52;15.60;72.90
45104;DHT22;30865;51.288;4.572;2023-06-04T05:20:18;15.90;72.20
45104;DHT22;30865;51.288;4.572;2023-06-04T05:22:44;15.90;72.10
45104;DHT22;30865;51.288;4.572;2023-06-04T05:25:11;16.00;71.50
45104;DHT22;30865;51.288;4.572;2023-06-04T05:27:36;16.10;70.00
45104;DHT22;30865;51.288;4.572;2023-06-04T05:30:03;16.10;70.00
45104;DHT22;30865;51.288;4.572;2023-06-04T05:32:29;16.10;70.60
45104;DHT22;30865;51.288;4.572;2023-06-04T05:34:56;16.40;70.20
45104;DHT22;30865;51.288;4.572;2023-06-04T05:37:23;16.50;68.80
45104;DHT22;30865;51.288;4.572;2023-06-04T05:39:49;16.70;62.70
45104;DHT22;30865;51.288;4.572;2023-06-04T05:42:15;16.90;62.50
45104;DHT22;30865;51.288;4.572;2023-06-04T05:44:41;16.90;63.30
45104;DHT22;30865;51.288;4.572;2023-06-04T05:47:07;16.70;62.20
45104;DHT22;30865;51.288;4.572;2023-06-04T05:49:34;17.10;61.50
45104;DHT22;30865;51.288;4.572;2023-06-04T05:51:59;17.10;60.20
45104;DHT22;30865;51.288;4.572;2023-06-04T05:54:26;17.30;59.70
45104;DHT22;30865;51.288;4.572;2023-06-04T05:56:51;17.40;59.80
45104;DHT22;30865;51.288;4.572;2023-06-04T05:59:17;17.30;59.00
45104;DHT22;30865;51.288;4.572;2023-06-04T06:01:42;17.70;58.40
45104;DHT22;30865;51.288;4.572;2023-06-04T06:04:08;17.70;58.60
45104;DHT22;30865;51.288;4.572;2023-06-04T06:06:35;17.50;57.60
45104;DHT22;30865;51.288;4.572;2023-06-04T06:09:00;17.60;57.40
45104;DHT22;30865;51.288;4.572;2023-06-04T06:11:26;17.50;56.80
45104;DHT22;30865;51.288;4.572;2023-06-04T06:13:52;17.40;56.20
45104;DHT22;30865;51.288;4.572;2023-06-04T06:16:18;17.80;56.20
45104;DHT22;30865;51.288;4.572;2023-06-04T06:18:43;17.90;56.00
45104;DHT22;30865;51.288;4.572;2023-06-04T06:21:09;17.90;55.20
45104;DHT22;30865;51.288;4.572;2023-06-04T06:23:35;18.40;55.40
45104;DHT22;30865;51.288;4.572;2023-06-04T06:26:01;18.30;55.20
45104;DHT22;30865;51.288;4.572;2023-06-04T06:28:27;18.30;55.10
45104;DHT22;30865;51.288;4.572;2023-06-04T06:30:53;18.50;54.40
45104;DHT22;30865;51.288;4.572;2023-06-04T06:33:18;18.60;54.90
45104;DHT22;30865;51.288;4.572;2023-06-04T06:35:49;18.80;53.50
45104;DHT22;30865;51.288;4.572;2023-06-04T06:38:16;18.50;53.30
45104;DHT22;30865;51.288;4.572;2023-06-04T06:40:41;19.00;53.60
45104;DHT22;30865;51.288;4.572;2023-06-04T06:43:06;19.30;53.30
45104;DHT22;30865;51.288;4.572;2023-06-04T06:45:32;19.20;53.00
45104;DHT22;30865;51.288;4.572;2023-06-04T06:47:57;18.90;53.10
45104;DHT22;30865;51.288;4.572;2023-06-04T06:50:23;19.10;53.10
45104;DHT22;30865;51.288;4.572;2023-06-04T06:52:49;18.80;53.50
45104;DHT22;30865;51.288;4.572;2023-06-04T06:55:14;19.10;52.70
45104;DHT22;30865;51.288;4.572;2023-06-04T06:57:40;19.40;52.60
45104;DHT22;30865;51.288;4.572;2023-06-04T07:00:07;19.60;52.70
45104;DHT22;30865;51.288;4.572;2023-06-04T07:02:33;19.90;51.90
45104;DHT22;30865;51.288;4.572;2023-06-04T07:04:58;19.50;51.70
45104;DHT22;30865;51.288;4.572;2023-06-04T07:07:24;19.30;52.10
45104;DHT22;30865;51.288;4.572;2023-06-04T07:09:49;19.30;53.00
45104;DHT22;30865;51.288;4.572;2023-06-04T07:12:15;19.30;53.30
45104;DHT22;30865;51.288;4.572;2023-06-04T07:14:43;19.20;53.20
45104;DHT22;30865;51.288;4.572;2023-06-04T07:17:09;19.60;52.90
45104;DHT22;30865;51.288;4.572;2023-06-04T07:19:34;19.80;52.40
45104;DHT22;30865;51.288;4.572;2023-06-04T07:22:00;19.70;52.30
45104;DHT22;30865;51.288;4.572;2023-06-04T07:24:25;19.60;52.50
45104;DHT22;30865;51.288;4.572;2023-06-04T07:26:51;20.00;52.10
45104;DHT22;30865;51.288;4.572;2023-06-04T07:29:17;20.00;51.80
45104;DHT22;30865;51.288;4.572;2023-06-04T07:31:42;20.10;52.80
45104;DHT22;30865;51.288;4.572;2023-06-04T07:34:08;20.50;51.40
45104;DHT22;30865;51.288;4.572;2023-06-04T07:36:34;20.80;50.60
45104;DHT22;30865;51.288;4.572;2023-06-04T07:38:59;20.80;50.30
45104;DHT22;30865;51.288;4.572;2023-06-04T07:41:25;20.80;50.10
45104;DHT22;30865;51.288;4.572;2023-06-04T07:43:54;20.80;49.70
45104;DHT22;30865;51.288;4.572;2023-06-04T07:46:19;20.50;50.10
45104;DHT22;30865;51.288;4.572;2023-06-04T07:48:45;20.60;50.90
45104;DHT22;30865;51.288;4.572;2023-06-04T07:51:12;20.90;50.60
45104;DHT22;30865;51.288;4.572;2023-06-04T07:53:37;20.60;51.20
45104;DHT22;30865;51.288;4.572;2023-06-04T07:56:03;20.90;50.20
45104;DHT22;30865;51.288;4.572;2023-06-04T07:58:29;21.10;50.50
45104;DHT22;30865;51.288;4.572;2023-06-04T08:00:55;21.20;51.20
45104;DHT22;30865;51.288;4.572;2023-06-04T08:03:21;21.60;51.10
45104;DHT22;30865;51.288;4.572;2023-06-04T08:05:47;21.20;50.20
45104;DHT22;30865;51.288;4.572;2023-06-04T08:08:12;21.50;51.30
45104;DHT22;30865;51.288;4.572;2023-06-04T08:10:39;21.50;51.10
45104;DHT22;30865;51.288;4.572;2023-06-04T08:13:05;21.60;50.70
45104;DHT22;30865;51.288;4.572;2023-06-04T08:15:30;21.60;50.00
45104;DHT22;30865;51.288;4.572;2023-06-04T08:17:56;21.80;50.00
45104;DHT22;30865;51.288;4.572;2023-06-04T08:20:21;21.90;50.10
45104;DHT22;30865;51.288;4.572;2023-06-04T08:22:47;21.50;50.70
45104;DHT22;30865;51.288;4.572;2023-06-04T08:25:13;21.80;50.10
45104;DHT22;30865;51.288;4.572;2023-06-04T08:27:40;22.00;50.00
45104;DHT22;30865;51.288;4.572;2023-06-04T08:30:06;22.40;49.30
45104;DHT22;30865;51.288;4.572;2023-06-04T08:32:32;22.20;48.80
45104;DHT22;30865;51.288;4.572;2023-06-04T08:34:58;22.60;48.00
45104;DHT22;30865;51.288;4.572;2023-06-04T08:37:23;22.40;48.30
45104;DHT22;30865;51.288;4.572;2023-06-04T08:39:50;22.60;47.90
45104;DHT22;30865;51.288;4.572;2023-06-04T08:42:30;22.40;47.40
45104;DHT22;30865;51.288;4.572;2023-06-04T08:44:57;22.70;47.80
45104;DHT22;30865;51.288;4.572;2023-06-04T08:47:25;22.80;46.50
45104;DHT22;30865;51.288;4.572;2023-06-04T08:49:56;22.70;46.20
45104;DHT22;30865;51.288;4.572;2023-06-04T08:52:24;22.90;46.00
45104;DHT22;30865;51.288;4.572;2023-06-04T08:54:51;22.90;46.40
45104;DHT22;30865;51.288;4.572;2023-06-04T08:57:18;23.00;46.10
45104;DHT22;30865;51.288;4.572;2023-06-04T08:59:46;22.50;45.90
45104;DHT22;30865;51.288;4.572;2023-06-04T09:02:13;22.70;46.40
45104;DHT22;30865;51.288;4.572;2023-06-04T09:04:39;22.80;46.10
45104;DHT22;30865;51.288;4.572;2023-06-04T09:07:06;22.70;46.20
45104;DHT22;30865;51.288;4.572;2023-06-04T09:09:36;22.70;45.90
45104;DHT22;30865;51.288;4.572;2023-06-04T09:12:03;22.80;45.50
45104;DHT22;30865;51.288;4.572;2023-06-04T09:14:31;22.90;45.40
45104;DHT22;30865;51.288;4.572;2023-06-04T09:16:57;23.10;45.20
45104;DHT22;30865;51.288;4.572;2023-06-04T09:19:24;23.00;44.40
45104;DHT22;30865;51.288;4.572;2023-06-04T09:21:56;23.10;45.50
45104;DHT22;30865;51.288;4.572;2023-06-04T09:24:23;23.30;44.70
45104;DHT22;30865;51.288;4.572;2023-06-04T09:26:50;23.70;44.90
45104;DHT22;30865;51.288;4.572;2023-06-04T09:29:16;23.70;43.20
45104;DHT22;30865;51.288;4.572;2023-06-04T09:31:45;23.80;42.50
45104;DHT22;30865;51.288;4.572;2023-06-04T09:34:12;23.40;42.10
45104;DHT22;30865;51.288;4.572;2023-06-04T09:36:37;23.70;42.80
45104;DHT22;30865;51.288;4.572;2023-06-04T09:39:14;23.70;43.20
45104;DHT22;30865;51.288;4.572;2023-06-04T09:41:39;23.90;43.20
45104;DHT22;30865;51.288;4.572;2023-06-04T09:44:05;23.90;42.30
45104;DHT22;30865;51.288;4.572;2023-06-04T09:46:31;24.20;42.10
45104;DHT22;30865;51.288;4.572;2023-06-04T09:49:01;24.30;41.90
45104;DHT22;30865;51.288;4.572;2023-06-04T09:51:28;23.90;41.90
45104;DHT22;30865;51.288;4.572;2023-06-04T09:53:55;24.30;42.10
45104;DHT22;30865;51.288;4.572;2023-06-04T09:56:22;23.90;42.00
45104;DHT22;30865;51.288;4.572;2023-06-04T09:58:54;24.20;42.10
45104;DHT22;30865;51.288;4.572;2023-06-04T10:01:20;24.30;41.40
45104;DHT22;30865;51.288;4.572;2023-06-04T10:03:47;24.00;41.70
45104;DHT22;30865;51.288;4.572;2023-06-04T10:06:15;24.20;41.60
45104;DHT22;30865;51.288;4.572;2023-06-04T10:08:43;24.20;41.70
45104;DHT22;30865;51.288;4.572;2023-06-04T10:11:11;24.30;41.70
45104;DHT22;30865;51.288;4.572;2023-06-04T10:13:55;24.60;41.30
45104;DHT22;30865;51.288;4.572;2023-06-04T10:16:23;24.50;41.30
45104;DHT22;30865;51.288;4.572;2023-06-04T10:18:50;24.70;40.80
45104;DHT22;30865;51.288;4.572;2023-06-04T10:21:17;24.70;39.80
45104;DHT22;30865;51.288;4.572;2023-06-04T10:23:44;24.90;38.10
45104;DHT22;30865;51.288;4.572;2023-06-04T10:26:13;24.90;37.90
45104;DHT22;30865;51.288;4.572;2023-06-04T10:28:41;25.00;38.20
45104;DHT22;30865;51.288;4.572;2023-06-04T10:31:09;25.10;38.00
45104;DHT22;30865;51.288;4.572;2023-06-04T10:33:34;25.20;38.60
45104;DHT22;30865;51.288;4.572;2023-06-04T10:36:19;25.00;38.80
45104;DHT22;30865;51.288;4.572;2023-06-04T10:38:49;25.00;39.60
45104;DHT22;30865;51.288;4.572;2023-06-04T10:41:16;24.80;39.90
45104;DHT22;30865;51.288;4.572;2023-06-04T10:43:42;24.70;40.20
45104;DHT22;30865;51.288;4.572;2023-06-04T10:46:12;24.80;39.70
45104;DHT22;30865;51.288;4.572;2023-06-04T10:48:48;24.80;39.70
45104;DHT22;30865;51.288;4.572;2023-06-04T10:51:15;24.50;39.50
45104;DHT22;30865;51.288;4.572;2023-06-04T10:53:40;24.20;39.80
45104;DHT22;30865;51.288;4.572;2023-06-04T10:56:06;24.30;40.30
45104;DHT22;30865;51.288;4.572;2023-06-04T10:58:33;24.60;40.10
45104;DHT22;30865;51.288;4.572;2023-06-04T11:00:58;25.20;40.00
45104;DHT22;30865;51.288;4.572;2023-06-04T11:03:34;25.50;39.00
45104;DHT22;30865;51.288;4.572;2023-06-04T11:06:01;25.80;39.00
45104;DHT22;30865;51.288;4.572;2023-06-04T11:08:28;25.40;38.80
45104;DHT22;30865;51.288;4.572;2023-06-04T11:10:54;25.60;38.90
45104;DHT22;30865;51.288;4.572;2023-06-04T11:13:26;26.10;38.60
45104;DHT22;30865;51.288;4.572;2023-06-04T11:15:52;25.80;38.40
45104;DHT22;30865;51.288;4.572;2023-06-04T11:18:19;26.10;38.40
45104;DHT22;30865;51.288;4.572;2023-06-04T11:20:47;26.40;38.10
45104;DHT22;30865;51.288;4.572;2023-06-04T11:23:14;26.50;36.80
45104;DHT22;30865;51.288;4.572;2023-06-04T11:25:41;26.10;36.70
45104;DHT22;30865;51.288;4.572;2023-06-04T11:28:13;25.90;37.00
45104;DHT22;30865;51.288;4.572;2023-06-04T11:30:38;25.70;37.30
45104;DHT22;30865;51.288;4.572;2023-06-04T11:33:04;25.80;36.80
45104;DHT22;30865;51.288;4.572;2023-06-04T11:35:30;26.20;36.60
45104;DHT22;30865;51.288;4.572;2023-06-04T11:37:57;25.80;36.80
45104;DHT22;30865;51.288;4.572;2023-06-04T11:40:24;25.70;36.20
45104;DHT22;30865;51.288;4.572;2023-06-04T11:42:52;26.10;36.50
45104;DHT22;30865;51.288;4.572;2023-06-04T11:45:19;26.60;36.20
45104;DHT22;30865;51.288;4.572;2023-06-04T11:47:52;26.10;35.90
45104;DHT22;30865;51.288;4.572;2023-06-04T11:50:19;26.50;35.50
45104;DHT22;30865;51.288;4.572;2023-06-04T11:52:46;26.80;34.70
45104;DHT22;30865;51.288;4.572;2023-06-04T11:55:12;26.60;34.50
45104;DHT22;30865;51.288;4.572;2023-06-04T11:57:39;26.70;34.20
45104;DHT22;30865;51.288;4.572;2023-06-04T12:00:06;26.60;34.10
45104;DHT22;30865;51.288;4.572;2023-06-04T12:02:38;26.80;34.20
45104;DHT22;30865;51.288;4.572;2023-06-04T12:05:11;26.90;34.30
45104;DHT22;30865;51.288;4.572;2023-06-04T12:07:37;26.50;35.00
45104;DHT22;30865;51.288;4.572;2023-06-04T12:10:07;26.20;35.60
45104;DHT22;30865;51.288;4.572;2023-06-04T12:12:34;26.60;35.50
45104;DHT22;30865;51.288;4.572;2023-06-04T12:15:00;26.90;33.40
45104;DHT22;30865;51.288;4.572;2023-06-04T12:17:26;26.80;33.90
45104;DHT22;30865;51.288;4.572;2023-06-04T12:19:52;26.10;34.30
45104;DHT22;30865;51.288;4.572;2023-06-04T12:22:18;26.20;34.70
45104;DHT22;30865;51.288;4.572;2023-06-04T12:24:54;26.50;34.20
45104;DHT22;30865;51.288;4.572;2023-06-04T12:27:25;26.80;34.00
45104;DHT22;30865;51.288;4.572;2023-06-04T12:30:04;26.70;33.80
45104;DHT22;30865;51.288;4.572;2023-06-04T12:32:36;26.80;33.90
45104;DHT22;30865;51.288;4.572;2023-06-04T12:35:02;26.80;33.40
45104;DHT22;30865;51.288;4.572;2023-06-04T12:37:27;26.60;33.50
45104;DHT22;30865;51.288;4.572;2023-06-04T12:39:54;26.80;34.20
45104;DHT22;30865;51.288;4.572;2023-06-04T12:42:20;27.10;33.10
45104;DHT22;30865;51.288;4.572;2023-06-04T12:44:46;27.20;33.00
45104;DHT22;30865;51.288;4.572;2023-06-04T12:47:11;27.40;32.90
45104;DHT22;30865;51.288;4.572;2023-06-04T12:49:37;27.30;32.50
45104;DHT22;30865;51.288;4.572;2023-06-04T12:52:04;27.40;32.40
45104;DHT22;30865;51.288;4.572;2023-06-04T12:54:29;27.40;32.10
45104;DHT22;30865;51.288;4.572;2023-06-04T12:56:56;27.50;31.90
45104;DHT22;30865;51.288;4.572;2023-06-04T12:59:22;27.70;31.80
45104;DHT22;30865;51.288;4.572;2023-06-04T13:01:48;27.50;31.50
45104;DHT22;30865;51.288;4.572;2023-06-04T13:04:13;27.50;31.10
45104;DHT22;30865;51.288;4.572;2023-06-04T13:06:39;27.30;32.60
45104;DHT22;30865;51.288;4.572;2023-06-04T13:09:05;27.20;31.90
45104;DHT22;30865;51.288;4.572;2023-06-04T13:11:42;27.50;31.90
45104;DHT22;30865;51.288;4.572;2023-06-04T13:14:09;27.50;31.70
45104;DHT22;30865;51.288;4.572;2023-06-04T13:16:35;26.90;31.20
45104;DHT22;30865;51.288;4.572;2023-06-04T13:19:01;27.20;31.80
45104;DHT22;30865;51.288;4.572;2023-06-04T13:21:27;27.60;31.40
45104;DHT22;30865;51.288;4.572;2023-06-04T13:23:52;27.90;31.10
45104;DHT22;30865;51.288;4.572;2023-06-04T13:26:18;27.20;31.40
45104;DHT22;30865;51.288;4.572;2023-06-04T13:28:45;27.50;31.10
45104;DHT22;30865;51.288;4.572;2023-06-04T13:31:10;27.80;30.50
45104;DHT22;30865;51.288;4.572;2023-06-04T13:33:36;27.80;30.20
45104;DHT22;30865;51.288;4.572;2023-06-04T13:36:03;27.60;30.40
45104;DHT22;30865;51.288;4.572;2023-06-04T13:38:29;27.40;30.40
45104;DHT22;30865;51.288;4.572;2023-06-04T13:40:54;27.80;30.20
45104;DHT22;30865;51.288;4.572;2023-06-04T13:43:20;28.00;30.00
45104;DHT22;30865;51.288;4.572;2023-06-04T13:45:46;27.90;29.30
45104;DHT22;30865;51.288;4.572;2023-06-04T13:48:12;28.10;29.20
45104;DHT22;30865;51.288;4.572;2023-06-04T13:50:38;28.00;29.60
45104;DHT22;30865;51.288;4.572;2023-06-04T13:53:03;28.00;29.50
45104;DHT22;30865;51.288;4.572;2023-06-04T13:55:29;28.20;29.80
45104;DHT22;30865;51.288;4.572;2023-06-04T13:57:55;28.10;29.30
45104;DHT22;30865;51.288;4.572;2023-06-04T14:00:20;27.90;29.40
45104;DHT22;30865;51.288;4.572;2023-06-04T14:02:47;28.70;29.10
45104;DHT22;30865;51.288;4.572;2023-06-04T14:05:13;28.80;29.00
45104;DHT22;30865;51.288;4.572;2023-06-04T14:07:41;29.10;28.10
45104;DHT22;30865;51.288;4.572;2023-06-04T14:10:07;28.60;28.60
45104;DHT22;30865;51.288;4.572;2023-06-04T14:12:32;28.90;28.10
45104;DHT22;30865;51.288;4.572;2023-06-04T14:14:58;28.60;28.60
45104;DHT22;30865;51.288;4.572;2023-06-04T14:17:24;29.30;28.20
45104;DHT22;30865;51.288;4.572;2023-06-04T14:19:50;29.50;27.60
45104;DHT22;30865;51.288;4.572;2023-06-04T14:22:15;29.10;27.30
45104;DHT22;30865;51.288;4.572;2023-06-04T14:24:41;29.60;27.40
45104;DHT22;30865;51.288;4.572;2023-06-04T14:27:07;29.40;28.00
45104;DHT22;30865;51.288;4.572;2023-06-04T14:29:34;30.30;27.20
45104;DHT22;30865;51.288;4.572;2023-06-04T14:32:00;30.00;27.60
45104;DHT22;30865;51.288;4.572;2023-06-04T14:34:25;30.50;26.20
45104;DHT22;30865;51.288;4.572;2023-06-04T14:36:51;30.20;27.40
45104;DHT22;30865;51.288;4.572;2023-06-04T14:39:17;30.20;26.90
45104;DHT22;30865;51.288;4.572;2023-06-04T14:41:42;29.60;26.60
45104;DHT22;30865;51.288;4.572;2023-06-04T14:44:08;29.90;26.70
45104;DHT22;30865;51.288;4.572;2023-06-04T14:46:33;29.90;26.50
45104;DHT22;30865;51.288;4.572;2023-06-04T14:48:59;29.70;26.40
45104;DHT22;30865;51.288;4.572;2023-06-04T14:51:25;30.40;26.40
45104;DHT22;30865;51.288;4.572;2023-06-04T14:53:50;31.50;25.90
45104;DHT22;30865;51.288;4.572;2023-06-04T14:56:19;32.00;25.20
45104;DHT22;30865;51.288;4.572;2023-06-04T14:58:44;32.40;25.00
45104;DHT22;30865;51.288;4.572;2023-06-04T15:01:10;31.00;24.50
45104;DHT22;30865;51.288;4.572;2023-06-04T15:03:38;31.60;24.40
45104;DHT22;30865;51.288;4.572;2023-06-04T15:06:03;31.70;24.40
45104;DHT22;30865;51.288;4.572;2023-06-04T15:08:29;30.80;25.20
45104;DHT22;30865;51.288;4.572;2023-06-04T15:10:54;30.60;25.30
45104;DHT22;30865;51.288;4.572;2023-06-04T15:13:20;30.10;25.20
45104;DHT22;30865;51.288;4.572;2023-06-04T15:15:45;31.30;25.10
45104;DHT22;30865;51.288;4.572;2023-06-04T15:18:11;32.40;24.70
45104;DHT22;30865;51.288;4.572;2023-06-04T15:20:39;31.60;24.40
45104;DHT22;30865;51.288;4.572;2023-06-04T15:23:06;31.70;25.20
45104;DHT22;30865;51.288;4.572;2023-06-04T15:25:32;31.10;24.90
45104;DHT22;30865;51.288;4.572;2023-06-04T15:27:58;31.60;24.10